createdAt,value
2022-08-17T00:02:26.322Z,72.50
2022-08-17T00:04:54.364Z,72.40
2022-08-17T00:07:21.505Z,72.60
2022-08-17T00:09:48.398Z,72.60
2022-08-17T00:12:42.972Z,72.50
2022-08-17T00:15:06.026Z,72.90
2022-08-17T00:17:38.340Z,72.60
2022-08-17T00:20:05.991Z,72.70
2022-08-17T00:22:36.307Z,72.70
2022-08-17T00:25:16.468Z,72.70
2022-08-17T00:27:46.395Z,72.60
2022-08-17T00:30:14.252Z,73.00
2022-08-17T00:33:23.256Z,73.00
2022-08-17T00:35:29.878Z,72.90
2022-08-17T00:37:56.932Z,72.70
2022-08-17T00:40:24.627Z,72.90
2022-08-17T00:42:53.504Z,72.90
2022-08-17T00:45:20.686Z,73.00
2022-08-17T00:47:47.667Z,73.30
2022-08-17T00:50:17.367Z,73.60
2022-08-17T00:52:53.610Z,73.50
2022-08-17T00:55:22.347Z,73.40
2022-08-17T00:57:55.583Z,73.40
2022-08-17T01:00:26.867Z,73.20
2022-08-17T01:03:02.056Z,73.40
2022-08-17T01:05:32.371Z,73.40
2022-08-17T01:08:02.013Z,73.30
2022-08-17T01:10:59.690Z,73.40
2022-08-17T01:13:24.434Z,73.30
2022-08-17T01:15:57.275Z,73.50
2022-08-17T01:18:26.159Z,73.50
2022-08-17T01:20:55.020Z,73.90
2022-08-17T01:23:26.104Z,73.80
2022-08-17T01:25:56.062Z,73.40
2022-08-17T01:28:33.364Z,73.90
2022-08-17T01:31:12.990Z,73.50
2022-08-17T01:33:40.126Z,73.50
2022-08-17T01:36:08.293Z,73.40
2022-08-17T01:38:37.946Z,73.60
2022-08-17T01:41:15.313Z,73.70
2022-08-17T01:43:45.603Z,73.90
2022-08-17T01:46:16.048Z,73.60
2022-08-17T01:48:47.205Z,73.70
2022-08-17T01:51:15.580Z,74.30
2022-08-17T01:53:48.789Z,74.00
2022-08-17T01:56:18.948Z,74.30
2022-08-17T01:58:46.373Z,74.90
2022-08-17T02:01:15.538Z,75.10
2022-08-17T02:03:59.789Z,75.20
2022-08-17T02:06:29.516Z,75.10
2022-08-17T02:09:02.651Z,75.50
2022-08-17T02:11:32.984Z,75.50
2022-08-17T02:14:02.734Z,75.50
2022-08-17T02:16:36.617Z,75.60
2022-08-17T02:19:06.319Z,75.60
2022-08-17T02:21:33.400Z,75.90
2022-08-17T02:24:01.873Z,76.60
2022-08-17T02:26:28.837Z,76.70
2022-08-17T02:28:55.774Z,75.60
2022-08-17T02:31:22.770Z,76.00
2022-08-17T02:34:00.535Z,75.70
2022-08-17T02:36:31.176Z,76.00
2022-08-17T02:39:04.304Z,76.50
2022-08-17T02:41:31.251Z,76.20
2022-08-17T02:43:58.638Z,76.40
2022-08-17T02:46:25.570Z,76.70
2022-08-17T02:48:52.654Z,76.70
2022-08-17T02:51:20.030Z,76.80
2022-08-17T02:53:47.159Z,76.70
2022-08-17T02:56:15.548Z,76.80
2022-08-17T02:58:42.445Z,76.50
2022-08-17T03:01:10.865Z,75.90
2022-08-17T03:03:40.578Z,76.50
2022-08-17T03:06:08.396Z,77.20
2022-08-17T03:08:35.437Z,77.30
2022-08-17T03:11:02.320Z,77.20
2022-08-17T03:13:30.845Z,77.30
2022-08-17T03:15:57.814Z,77.00
2022-08-17T03:18:26.354Z,77.00
2022-08-17T03:20:59.022Z,76.60
2022-08-17T03:23:27.530Z,76.40
2022-08-17T03:25:56.829Z,76.00
2022-08-17T03:28:25.000Z,76.80
2022-08-17T03:30:53.577Z,77.00
2022-08-17T03:33:20.633Z,77.30
2022-08-17T03:35:48.011Z,77.40
2022-08-17T03:38:17.020Z,77.50
2022-08-17T03:40:58.691Z,77.60
2022-08-17T03:43:28.475Z,77.60
2022-08-17T03:46:34.683Z,77.80
2022-08-17T03:49:22.823Z,77.70
2022-08-17T03:52:08.517Z,77.70
2022-08-17T03:54:54.130Z,78.00
2022-08-17T03:57:21.111Z,77.90
2022-08-17T03:59:48.195Z,77.90
2022-08-17T04:02:20.097Z,78.30
2022-08-17T04:04:50.886Z,78.40
2022-08-17T04:07:18.601Z,78.20
2022-08-17T04:09:45.705Z,78.30
2022-08-17T04:12:15.535Z,78.30
2022-08-17T04:14:51.900Z,78.10
2022-08-17T04:17:23.517Z,78.60
2022-08-17T04:19:50.443Z,78.60
2022-08-17T04:22:32.508Z,79.00
2022-08-17T04:25:03.582Z,78.70
2022-08-17T04:27:30.444Z,78.80
2022-08-17T04:29:58.710Z,79.00
2022-08-17T04:33:19.146Z,78.80
2022-08-17T04:35:41.116Z,78.90
2022-08-17T04:38:10.689Z,78.90
2022-08-17T04:40:56.383Z,78.70
2022-08-17T04:43:25.432Z,78.50
2022-08-17T04:45:56.220Z,78.60
2022-08-17T04:48:29.945Z,78.70
2022-08-17T04:51:03.972Z,78.80
2022-08-17T04:53:30.858Z,79.00
2022-08-17T04:55:59.151Z,78.70
2022-08-17T04:58:26.083Z,78.80
2022-08-17T05:00:53.272Z,78.80
2022-08-17T05:03:20.164Z,79.00
2022-08-17T05:05:54.882Z,79.00
2022-08-17T05:08:22.069Z,78.50
2022-08-17T05:10:49.966Z,79.20
2022-08-17T05:13:18.911Z,79.10
2022-08-17T05:15:48.547Z,79.40
2022-08-17T05:18:16.513Z,79.20
2022-08-17T05:20:44.557Z,79.10
2022-08-17T05:23:15.153Z,79.40
2022-08-17T05:25:47.705Z,79.40
2022-08-17T05:28:16.756Z,79.20
2022-08-17T05:30:46.044Z,79.00
2022-08-17T05:33:18.446Z,79.60
2022-08-17T05:35:47.528Z,79.90
2022-08-17T05:38:17.609Z,79.30
2022-08-17T05:40:45.723Z,79.10
2022-08-17T05:43:15.581Z,79.40
2022-08-17T05:45:55.907Z,79.30
2022-08-17T05:48:35.490Z,78.80
2022-08-17T05:51:27.364Z,78.80
2022-08-17T05:54:07.414Z,78.90
2022-08-17T05:56:51.723Z,78.50
2022-08-17T05:59:28.146Z,78.70
2022-08-17T06:02:03.019Z,78.70
2022-08-17T06:04:41.084Z,78.80
2022-08-17T06:07:15.845Z,78.70
2022-08-17T06:09:50.126Z,78.90
2022-08-17T06:12:33.977Z,78.90
2022-08-17T06:15:24.826Z,79.10
2022-08-17T06:17:57.760Z,78.70
2022-08-17T06:20:27.877Z,79.40
2022-08-17T06:23:03.548Z,78.80
2022-08-17T06:25:36.469Z,79.40
2022-08-17T06:28:08.218Z,79.10
2022-08-17T06:31:00.554Z,78.90
2022-08-17T06:33:32.886Z,79.20
2022-08-17T06:36:08.173Z,79.30
2022-08-17T06:38:45.245Z,78.90
2022-08-17T06:41:23.568Z,78.70
2022-08-17T06:44:02.723Z,78.50
2022-08-17T06:46:36.576Z,78.30
2022-08-17T06:49:09.021Z,78.40
2022-08-17T06:51:39.880Z,78.20
2022-08-17T06:54:10.377Z,77.90
2022-08-17T06:56:53.953Z,77.90
2022-08-17T06:59:36.281Z,77.80
2022-08-17T07:02:19.635Z,77.70
2022-08-17T07:04:56.988Z,77.80
2022-08-17T07:07:50.548Z,77.80
2022-08-17T07:10:19.895Z,77.90
2022-08-17T07:12:51.092Z,77.80
2022-08-17T07:15:23.527Z,77.90
2022-08-17T07:17:50.840Z,77.70
2022-08-17T07:20:21.167Z,77.70
2022-08-17T07:23:08.631Z,77.70
2022-08-17T07:25:36.210Z,77.70
2022-08-17T07:28:07.799Z,77.90
2022-08-17T07:30:46.938Z,77.70
2022-08-17T07:33:20.153Z,77.90
2022-08-17T07:35:49.838Z,78.10
2022-08-17T07:38:24.183Z,77.60
2022-08-17T07:41:01.505Z,78.10
2022-08-17T07:43:31.917Z,77.70
2022-08-17T07:46:34.522Z,77.70
2022-08-17T07:49:20.548Z,77.90
2022-08-17T07:51:57.689Z,77.70
2022-08-17T07:54:35.676Z,77.70
2022-08-17T07:57:30.000Z,77.70
2022-08-17T08:00:23.797Z,77.60
2022-08-17T08:03:04.374Z,77.50
2022-08-17T08:05:50.617Z,77.70
2022-08-17T08:08:30.969Z,77.70
2022-08-17T08:11:02.333Z,77.60
2022-08-17T08:13:30.698Z,77.60
2022-08-17T08:16:24.422Z,77.50
2022-08-17T08:18:56.800Z,77.50
2022-08-17T08:21:33.095Z,77.60
2022-08-17T08:24:16.643Z,77.40
2022-08-17T08:26:49.042Z,77.40
2022-08-17T08:29:29.381Z,77.50
2022-08-17T08:32:07.678Z,77.40
2022-08-17T08:35:02.181Z,77.30
2022-08-17T08:37:43.133Z,77.30
2022-08-17T08:40:28.348Z,77.40
2022-08-17T08:43:08.412Z,77.40
2022-08-17T08:45:45.989Z,77.40
2022-08-17T08:48:53.156Z,77.00
2022-08-17T08:51:27.682Z,77.30
2022-08-17T08:54:03.440Z,77.30
2022-08-17T08:56:37.046Z,77.20
2022-08-17T08:59:18.024Z,77.20
2022-08-17T09:01:59.415Z,77.20
2022-08-17T09:05:12.826Z,77.10
2022-08-17T09:07:44.895Z,77.50
2022-08-17T09:10:19.492Z,77.40
2022-08-17T09:12:56.361Z,77.50
2022-08-17T09:15:27.692Z,77.80
2022-08-17T09:18:36.416Z,77.50
2022-08-17T09:20:54.437Z,77.40
2022-08-17T09:23:32.471Z,77.70
2022-08-17T09:26:08.797Z,77.50
2022-08-17T09:28:38.055Z,76.80
2022-08-17T09:31:09.610Z,76.10
2022-08-17T09:33:44.304Z,75.20
2022-08-17T09:36:21.243Z,75.30
2022-08-17T09:38:59.834Z,75.20
2022-08-17T09:41:38.134Z,74.60
2022-08-17T09:44:25.807Z,74.70
2022-08-17T09:46:56.100Z,75.00
2022-08-17T09:49:38.841Z,75.10
2022-08-17T09:52:15.584Z,74.70
2022-08-17T09:54:46.123Z,75.00
2022-08-17T09:57:31.802Z,74.70
2022-08-17T10:00:16.687Z,74.60
2022-08-17T10:02:59.397Z,74.40
2022-08-17T10:05:33.561Z,74.50
2022-08-17T10:08:09.663Z,74.10
2022-08-17T10:10:52.207Z,74.40
2022-08-17T10:13:34.073Z,74.60
2022-08-17T10:16:07.730Z,74.30
2022-08-17T10:18:43.731Z,74.50
2022-08-17T10:21:32.028Z,74.30
2022-08-17T10:24:28.188Z,74.20
2022-08-17T10:26:57.699Z,74.50
2022-08-17T10:29:44.168Z,74.40
2022-08-17T10:32:25.376Z,74.30
2022-08-17T10:35:17.994Z,74.30
2022-08-17T10:38:08.741Z,74.10
2022-08-17T10:40:47.286Z,73.90
2022-08-17T10:43:26.906Z,73.80
2022-08-17T10:46:27.828Z,74.00
2022-08-17T10:49:30.541Z,73.90
2022-08-17T10:51:59.900Z,73.70
2022-08-17T10:54:39.400Z,73.80
2022-08-17T10:57:55.429Z,73.80
2022-08-17T11:01:08.979Z,73.50
2022-08-17T11:03:36.322Z,73.40
2022-08-17T11:06:18.165Z,73.60
2022-08-17T11:09:19.960Z,73.60
2022-08-17T11:12:21.192Z,73.20
2022-08-17T11:15:03.360Z,72.90
2022-08-17T11:17:53.720Z,73.30
2022-08-17T11:21:17.506Z,73.50
2022-08-17T11:24:13.731Z,73.50
2022-08-17T11:26:46.765Z,73.60
2022-08-17T11:29:24.655Z,73.40
2022-08-17T11:32:02.165Z,73.50
2022-08-17T11:34:31.973Z,73.70
2022-08-17T11:37:27.550Z,73.80
2022-08-17T11:40:20.370Z,73.90
2022-08-17T11:43:29.288Z,73.80
2022-08-17T11:46:06.294Z,73.90
2022-08-17T11:49:05.263Z,74.10
2022-08-17T11:51:55.535Z,74.40
2022-08-17T11:54:44.389Z,74.60
2022-08-17T11:57:46.088Z,74.90
2022-08-17T12:00:56.553Z,75.40
2022-08-17T12:03:55.325Z,75.60
2022-08-17T12:06:49.908Z,75.70
2022-08-17T12:09:19.839Z,76.00
2022-08-17T12:11:57.815Z,75.90
2022-08-17T12:15:08.787Z,76.20
2022-08-17T12:17:41.073Z,76.40
2022-08-17T12:20:15.078Z,76.70
2022-08-17T12:22:53.727Z,76.70
2022-08-17T12:25:25.946Z,76.90
2022-08-17T12:28:06.120Z,76.90
2022-08-17T12:30:34.999Z,77.20
2022-08-17T12:33:02.515Z,77.20
2022-08-17T12:35:33.146Z,77.40
2022-08-17T12:38:01.158Z,77.50
2022-08-17T12:40:30.174Z,77.10
2022-08-17T12:43:01.018Z,77.50
2022-08-17T12:45:30.527Z,77.40
2022-08-17T12:48:04.111Z,77.60
2022-08-17T12:50:32.166Z,77.50
2022-08-17T12:53:02.569Z,77.80
2022-08-17T12:55:37.146Z,77.60
2022-08-17T12:58:08.965Z,77.90
2022-08-17T13:00:47.607Z,77.90
2022-08-17T13:03:19.531Z,77.80
2022-08-17T13:05:58.323Z,77.80
2022-08-17T13:08:30.836Z,77.80
2022-08-17T13:11:00.720Z,78.00
2022-08-17T13:13:31.954Z,78.10
2022-08-17T13:16:00.972Z,78.10
2022-08-17T13:18:38.982Z,78.20
2022-08-17T13:21:11.270Z,78.10
2022-08-17T13:23:38.588Z,78.10
2022-08-17T13:26:09.177Z,78.30
2022-08-17T13:28:37.748Z,78.40
2022-08-17T13:31:44.030Z,78.30
2022-08-17T13:35:08.961Z,78.30
2022-08-17T13:37:32.586Z,78.50
2022-08-17T13:40:30.152Z,78.50
2022-08-17T13:43:00.267Z,78.40
2022-08-17T13:45:51.199Z,78.70
2022-08-17T13:48:29.557Z,78.80
2022-08-17T13:51:25.264Z,79.20
2022-08-17T13:53:56.294Z,78.90
2022-08-17T13:56:43.967Z,78.90
2022-08-17T13:59:13.660Z,77.60
2022-08-17T14:01:46.579Z,78.80
2022-08-17T14:04:18.402Z,78.80
2022-08-17T14:06:52.403Z,79.10
2022-08-17T14:09:23.400Z,79.20
2022-08-17T14:11:54.632Z,78.80
2022-08-17T14:14:25.529Z,79.40
2022-08-17T14:16:54.629Z,79.00
2022-08-17T14:19:24.508Z,78.90
2022-08-17T14:21:56.382Z,79.20
2022-08-17T14:24:26.653Z,79.00
2022-08-17T14:26:53.912Z,79.20
2022-08-17T14:29:22.089Z,78.80
2022-08-17T14:31:53.345Z,78.90
2022-08-17T14:34:23.930Z,79.40
2022-08-17T14:36:51.055Z,79.40
2022-08-17T14:39:18.840Z,79.60
2022-08-17T14:41:46.341Z,79.40
2022-08-17T14:44:16.248Z,79.40
2022-08-17T14:46:44.649Z,79.40
2022-08-17T14:49:13.412Z,79.30
2022-08-17T14:51:43.751Z,79.50
2022-08-17T14:54:11.482Z,79.30
2022-08-17T14:56:57.001Z,79.50
2022-08-17T14:59:39.693Z,79.60
2022-08-17T15:02:06.910Z,79.40
2022-08-17T15:04:33.924Z,79.30
2022-08-17T15:07:03.662Z,79.00
2022-08-17T15:09:30.991Z,79.40
2022-08-17T15:12:02.674Z,79.30
2022-08-17T15:14:29.663Z,79.20
2022-08-17T15:16:56.687Z,79.10
2022-08-17T15:19:23.580Z,79.20
2022-08-17T15:21:50.559Z,79.00
2022-08-17T15:24:18.808Z,79.00
2022-08-17T15:26:47.650Z,79.00
2022-08-17T15:29:15.776Z,79.00
2022-08-17T15:31:43.134Z,79.00
2022-08-17T15:34:10.039Z,79.00
2022-08-17T15:36:37.077Z,78.80
2022-08-17T15:39:05.951Z,79.00
2022-08-17T15:41:34.571Z,78.70
2022-08-17T15:44:01.437Z,78.60
2022-08-17T15:46:29.219Z,78.70
2022-08-17T15:49:02.463Z,78.80
2022-08-17T15:51:31.643Z,78.60
2022-08-17T15:54:04.369Z,79.00
2022-08-17T15:56:46.360Z,78.50
2022-08-17T15:59:13.478Z,78.50
2022-08-17T16:03:14.651Z,78.60
2022-08-17T16:04:30.833Z,78.60
2022-08-17T16:06:58.730Z,78.70
2022-08-17T16:09:25.705Z,78.60
2022-08-17T16:11:55.620Z,78.60
2022-08-17T16:14:23.163Z,78.80
2022-08-17T16:16:51.260Z,78.80
2022-08-17T16:19:18.169Z,78.70
2022-08-17T16:21:45.169Z,78.70
2022-08-17T16:24:13.226Z,78.80
2022-08-17T16:26:42.293Z,78.60
2022-08-17T16:29:10.669Z,78.60
2022-08-17T16:31:37.868Z,78.60
2022-08-17T16:34:16.985Z,78.60
2022-08-17T16:36:54.596Z,78.60
2022-08-17T16:39:24.341Z,78.60
2022-08-17T16:41:51.416Z,78.70
2022-08-17T16:44:21.260Z,78.70
2022-08-17T16:46:48.815Z,78.60
2022-08-17T16:49:29.687Z,78.50
2022-08-17T16:52:07.451Z,78.60
2022-08-17T16:54:43.448Z,78.60
2022-08-17T16:57:11.485Z,78.60
2022-08-17T16:59:43.600Z,78.70
2022-08-17T17:02:14.843Z,78.70
2022-08-17T17:04:50.313Z,78.70
2022-08-17T17:07:53.319Z,78.60
2022-08-17T17:10:27.318Z,78.50
2022-08-17T17:13:02.714Z,78.40
2022-08-17T17:15:47.226Z,78.60
2022-08-17T17:18:15.809Z,78.70
2022-08-17T17:20:49.886Z,78.70
2022-08-17T17:23:33.786Z,78.50
2022-08-17T17:26:16.031Z,78.50
2022-08-17T17:28:55.658Z,78.60
2022-08-17T17:31:33.669Z,78.40
2022-08-17T17:34:05.159Z,78.60
2022-08-17T17:36:42.665Z,78.60
2022-08-17T17:39:13.941Z,78.70
2022-08-17T17:41:47.187Z,78.60
2022-08-17T17:44:17.993Z,78.40
2022-08-17T17:46:53.057Z,78.80
2022-08-17T17:49:20.505Z,78.40
2022-08-17T17:52:08.110Z,78.70
2022-08-17T17:54:50.458Z,78.90
2022-08-17T17:57:24.774Z,78.90
2022-08-17T18:00:02.334Z,78.60
2022-08-17T18:02:51.917Z,78.40
2022-08-17T18:05:49.942Z,78.40
2022-08-17T18:08:36.396Z,78.90
2022-08-17T18:11:14.839Z,78.80
2022-08-17T18:14:03.497Z,78.50
2022-08-17T18:16:32.961Z,78.70
2022-08-17T18:19:01.286Z,78.80
2022-08-17T18:21:35.510Z,78.80
2022-08-17T18:24:06.564Z,79.10
2022-08-17T18:26:46.051Z,79.00
2022-08-17T18:29:39.682Z,78.70
2022-08-17T18:32:33.454Z,78.80
2022-08-17T18:35:27.837Z,79.40
2022-08-17T18:37:58.077Z,79.70
2022-08-17T18:40:29.484Z,79.60
2022-08-17T18:43:03.077Z,79.40
2022-08-17T18:45:40.934Z,79.40
2022-08-17T18:48:36.047Z,79.70
2022-08-17T18:51:27.444Z,79.50
2022-08-17T18:54:13.053Z,79.50
2022-08-17T18:56:42.091Z,79.50
2022-08-17T18:59:22.377Z,79.70
2022-08-17T19:02:22.381Z,79.80
2022-08-17T19:05:07.797Z,79.80
2022-08-17T19:07:38.934Z,79.90
2022-08-17T19:10:19.302Z,79.70
2022-08-17T19:12:51.436Z,79.80
2022-08-17T19:15:23.069Z,80.10
2022-08-17T19:17:55.376Z,80.10
2022-08-17T19:20:28.678Z,80.00
2022-08-17T19:23:16.571Z,80.00
2022-08-17T19:25:48.689Z,80.00
2022-08-17T19:28:22.742Z,80.00
2022-08-17T19:30:54.763Z,79.80
2022-08-17T19:33:21.991Z,79.80
2022-08-17T19:35:58.380Z,79.70
2022-08-17T19:38:38.906Z,79.60
2022-08-17T19:41:11.743Z,79.60
2022-08-17T19:44:01.501Z,79.60
2022-08-17T19:46:35.954Z,79.60
2022-08-17T19:49:07.549Z,79.70
2022-08-17T19:51:42.305Z,79.80
2022-08-17T19:54:20.394Z,79.90
2022-08-17T19:56:57.398Z,80.00
2022-08-17T19:59:38.055Z,80.20
2022-08-17T20:02:21.045Z,80.30
2022-08-17T20:04:50.277Z,80.40
2022-08-17T20:07:21.072Z,80.70
2022-08-17T20:09:53.057Z,80.60
2022-08-17T20:12:25.591Z,80.70
2022-08-17T20:14:57.263Z,80.70
2022-08-17T20:17:28.125Z,80.50
2022-08-17T20:20:01.499Z,80.50
2022-08-17T20:22:36.786Z,80.40
2022-08-17T20:25:30.503Z,80.40
2022-08-17T20:28:06.204Z,80.40
2022-08-17T20:30:39.949Z,80.40
2022-08-17T20:33:21.582Z,80.40
2022-08-17T20:36:02.970Z,80.50
2022-08-17T20:38:43.537Z,80.40
2022-08-17T20:41:15.138Z,80.50
2022-08-17T20:43:47.062Z,80.50
2022-08-17T20:46:23.733Z,80.60
2022-08-17T20:48:55.204Z,80.60
2022-08-17T20:51:27.384Z,80.60
2022-08-17T20:54:25.372Z,80.60
2022-08-17T20:57:02.039Z,80.70
2022-08-17T20:59:59.689Z,81.00
2022-08-17T21:02:28.588Z,81.00
2022-08-17T21:05:05.463Z,80.80
2022-08-17T21:07:53.247Z,81.00
2022-08-17T21:10:32.412Z,81.20
2022-08-17T21:13:23.193Z,81.20
2022-08-17T21:15:54.725Z,81.00
2022-08-17T21:18:31.168Z,80.90
2022-08-17T21:21:12.107Z,81.10
2022-08-17T21:24:00.235Z,81.10
2022-08-17T21:26:34.270Z,81.30
2022-08-17T21:29:31.152Z,81.20
2022-08-17T21:32:23.683Z,81.10
2022-08-17T21:35:28.927Z,81.40
2022-08-17T21:38:05.084Z,81.50
2022-08-17T21:40:34.018Z,81.30
2022-08-17T21:43:15.715Z,81.30
2022-08-17T21:45:55.504Z,81.40
2022-08-17T21:48:24.607Z,81.50
2022-08-17T21:50:59.397Z,81.40
2022-08-17T21:53:33.266Z,81.50
2022-08-17T21:56:01.006Z,81.50
2022-08-17T21:58:31.767Z,81.60
2022-08-17T22:01:21.142Z,81.50
2022-08-17T22:03:55.959Z,81.70
2022-08-17T22:06:35.254Z,81.60
2022-08-17T22:09:17.575Z,81.60
2022-08-17T22:12:11.283Z,81.60
2022-08-17T22:14:52.217Z,81.60
2022-08-17T22:17:24.738Z,81.60
2022-08-17T22:19:53.663Z,81.60
2022-08-17T22:22:59.812Z,81.70
2022-08-17T22:25:28.100Z,81.80
2022-08-17T22:27:57.096Z,81.80
2022-08-17T22:30:42.954Z,81.70
2022-08-17T22:33:36.963Z,81.80
2022-08-17T22:36:13.707Z,81.90
2022-08-17T22:38:41.793Z,81.90
2022-08-17T22:41:30.144Z,82.00
2022-08-17T22:44:02.052Z,82.00
2022-08-17T22:46:29.338Z,82.00
2022-08-17T22:48:59.635Z,82.10
2022-08-17T22:51:30.446Z,82.10
2022-08-17T22:54:19.887Z,82.20
2022-08-17T22:57:09.484Z,82.20
2022-08-17T22:59:43.581Z,82.20
2022-08-17T23:02:24.424Z,82.00
2022-08-17T23:05:21.364Z,82.10
2022-08-17T23:07:52.497Z,82.10
2022-08-17T23:10:19.719Z,82.20
2022-08-17T23:12:47.493Z,82.20
2022-08-17T23:15:17.553Z,82.20
2022-08-17T23:17:47.148Z,82.30
2022-08-17T23:20:17.710Z,82.20
2022-08-17T23:22:52.239Z,82.20
2022-08-17T23:25:25.664Z,81.90
2022-08-17T23:27:53.164Z,82.20
2022-08-17T23:30:20.291Z,82.20
2022-08-17T23:32:53.740Z,81.80
2022-08-17T23:35:40.540Z,82.20
2022-08-17T23:38:09.830Z,82.30
2022-08-17T23:40:39.541Z,82.20
2022-08-17T23:43:11.522Z,82.30
2022-08-17T23:45:52.260Z,82.40
2022-08-17T23:48:30.334Z,82.40
2022-08-17T23:51:04.001Z,82.40
2022-08-17T23:53:36.089Z,82.40
2022-08-17T23:56:09.174Z,82.40
2022-08-17T23:58:38.331Z,82.30
